createdAt,value
2018-06-01T00:00:04.670Z,7.23
2018-06-01T00:02:44.841Z,7.53
2018-06-01T00:05:25.015Z,9.30
2018-06-01T00:08:05.292Z,8.07
2018-06-01T00:10:45.728Z,8.03
2018-06-01T00:13:26.158Z,12.23
2018-06-01T00:16:07.718Z,7.57
2018-06-01T00:18:48.011Z,7.90
2018-06-01T00:21:29.611Z,9.17
2018-06-01T00:24:10.020Z,12.50
2018-06-01T00:26:50.483Z,8.50
2018-06-01T00:29:31.137Z,8.73
2018-06-01T00:32:11.533Z,12.17
2018-06-01T00:34:52.031Z,11.17
2018-06-01T00:37:32.892Z,11.77
2018-06-01T00:40:13.063Z,10.23
2018-06-01T00:42:53.564Z,10.57
2018-06-01T00:45:33.886Z,9.53
2018-06-01T00:48:14.295Z,9.27
2018-06-01T00:50:54.653Z,9.70
2018-06-01T00:53:35.049Z,13.27
2018-06-01T00:56:15.535Z,12.73
2018-06-01T00:58:56.045Z,11.83
2018-06-01T01:01:37.105Z,12.13
2018-06-01T01:04:17.782Z,11.17
2018-06-01T01:06:58.852Z,11.03
2018-06-01T01:09:40.144Z,13.83
2018-06-01T01:12:20.580Z,10.90
2018-06-01T01:15:01.784Z,11.40
2018-06-01T01:17:42.170Z,9.90
2018-06-01T01:20:23.432Z,11.90
2018-06-01T01:23:03.915Z,10.60
2018-06-01T01:25:44.448Z,12.67
2018-06-01T01:28:24.748Z,9.57
2018-06-01T01:31:04.958Z,9.30
2018-06-01T01:33:45.408Z,8.67
2018-06-01T01:36:25.646Z,11.07
2018-06-01T01:39:06.984Z,7.37
2018-06-01T01:41:48.271Z,7.87
2018-06-01T01:44:29.286Z,7.47
2018-06-01T01:47:09.613Z,9.13
2018-06-01T01:49:53.508Z,6.70
2018-06-01T01:52:33.929Z,7.90
2018-06-01T01:55:14.175Z,9.20
2018-06-01T01:57:54.646Z,7.90
2018-06-01T02:03:58.005Z,8.13
2018-06-01T02:06:38.265Z,9.37
2018-06-01T02:09:18.674Z,6.57
2018-06-01T02:11:59.093Z,6.23
2018-06-01T02:14:39.337Z,11.60
2018-06-01T02:17:19.777Z,6.87
2018-06-01T02:20:00.852Z,6.63
2018-06-01T02:22:41.148Z,6.97
2018-06-01T02:25:21.984Z,7.40
2018-06-01T02:28:02.321Z,7.70
2018-06-01T02:30:42.769Z,8.83
2018-06-01T02:33:23.998Z,7.37
2018-06-01T02:36:04.311Z,9.33
2018-06-01T02:38:44.736Z,7.20
2018-06-01T02:41:25.507Z,9.37
2018-06-01T02:44:05.774Z,7.97
2018-06-01T02:46:46.259Z,6.90
2018-06-01T02:49:26.585Z,8.20
2018-06-01T02:52:06.974Z,6.50
2018-06-01T02:54:47.365Z,7.43
2018-06-01T02:57:27.809Z,9.17
2018-06-01T03:00:08.937Z,6.47
2018-06-01T03:02:49.261Z,7.20
2018-06-01T03:05:30.776Z,8.50
2018-06-01T03:08:11.163Z,6.17
2018-06-01T03:10:51.915Z,6.00
2018-06-01T03:13:32.227Z,8.07
2018-06-01T03:16:12.518Z,6.60
2018-06-01T03:18:53.702Z,6.00
2018-06-01T03:21:34.113Z,7.47
2018-06-01T03:24:14.563Z,7.23
2018-06-01T03:26:54.796Z,6.30
2018-06-01T03:29:35.585Z,8.70
2018-06-01T03:32:16.015Z,6.50
2018-06-01T03:34:56.493Z,8.27
2018-06-01T03:37:36.828Z,7.77
2018-06-01T03:40:18.064Z,7.47
2018-06-01T03:42:58.361Z,6.73
2018-06-01T03:45:38.818Z,7.90
2018-06-01T03:48:19.139Z,8.97
2018-06-01T03:50:59.416Z,6.77
2018-06-01T03:53:39.911Z,9.30
2018-06-01T03:56:20.352Z,7.30
2018-06-01T03:59:01.300Z,6.80
2018-06-01T04:01:41.891Z,6.40
2018-06-01T04:04:22.900Z,7.13
2018-06-01T04:07:03.452Z,6.43
2018-06-01T04:09:43.742Z,6.40
2018-06-01T04:12:24.728Z,8.63
2018-06-01T04:15:05.803Z,6.43
2018-06-01T04:17:45.953Z,6.53
2018-06-01T04:20:26.385Z,8.23
2018-06-01T04:23:06.630Z,7.13
2018-06-01T04:25:46.921Z,11.40
2018-06-01T04:28:27.098Z,7.37
2018-06-01T04:31:07.428Z,8.93
2018-06-01T04:33:47.969Z,9.50
2018-06-01T04:36:28.416Z,9.97
2018-06-01T04:39:08.842Z,7.20
2018-06-01T04:41:49.216Z,6.93
2018-06-01T04:44:30.424Z,7.90
2018-06-01T04:47:11.469Z,7.00
2018-06-01T04:49:52.575Z,6.60
2018-06-01T04:52:33.704Z,8.47
2018-06-01T04:55:14.201Z,8.30
2018-06-01T04:57:55.891Z,8.50
2018-06-01T05:00:36.342Z,6.33
2018-06-01T05:03:16.779Z,7.00
2018-06-01T05:05:57.054Z,10.63
2018-06-01T05:08:37.232Z,8.33
2018-06-01T05:11:17.573Z,7.07
2018-06-01T05:13:57.905Z,6.33
2018-06-01T05:16:38.227Z,5.43
2018-06-01T05:19:18.584Z,5.57
2018-06-01T05:21:58.900Z,5.50
2018-06-01T05:24:39.222Z,6.90
2018-06-01T05:27:19.716Z,6.17
2018-06-01T05:30:02.099Z,9.07
2018-06-01T05:32:42.625Z,5.43
2018-06-01T05:35:23.667Z,10.27
2018-06-01T05:38:05.021Z,7.23
2018-06-01T05:40:45.389Z,6.57
2018-06-01T05:43:26.176Z,8.87
2018-06-01T05:46:07.072Z,6.70
2018-06-01T05:48:47.480Z,8.37
2018-06-01T05:51:27.950Z,6.83
2018-06-01T05:54:08.416Z,6.13
2018-06-01T05:56:48.589Z,8.50
2018-06-01T05:59:29.055Z,8.27
2018-06-01T06:02:09.661Z,6.40
2018-06-01T06:04:50.112Z,9.50
2018-06-01T06:07:31.316Z,13.27
2018-06-01T06:10:11.670Z,8.57
2018-06-01T06:12:53.484Z,7.27
2018-06-01T06:15:33.920Z,6.07
2018-06-01T06:18:15.016Z,6.97
2018-06-01T06:20:56.372Z,9.27
2018-06-01T06:23:36.776Z,10.47
2018-06-01T06:26:17.200Z,6.63
2018-06-01T06:28:57.480Z,7.33
2018-06-01T06:31:37.896Z,9.30
2018-06-01T06:34:18.236Z,6.87
2018-06-01T06:36:58.595Z,6.10
2018-06-01T06:39:38.906Z,7.50
2018-06-01T06:42:20.136Z,8.33
2018-06-01T06:45:00.664Z,9.97
2018-06-01T06:47:41.068Z,8.30
2018-06-01T06:50:21.817Z,6.07
2018-06-01T06:53:02.912Z,7.63
2018-06-01T06:55:43.194Z,7.93
2018-06-01T06:58:24.843Z,7.47
2018-06-01T07:01:06.081Z,9.10
2018-06-01T07:03:46.560Z,7.70
2018-06-01T07:06:26.861Z,5.30
2018-06-01T07:09:08.200Z,6.90
2018-06-01T07:11:48.502Z,8.50
2018-06-01T07:14:28.873Z,5.87
2018-06-01T07:17:09.148Z,6.63
2018-06-01T07:19:49.593Z,9.23
2018-06-01T07:22:30.570Z,7.10
2018-06-01T07:25:10.811Z,5.23
2018-06-01T07:27:52.740Z,7.37
2018-06-01T07:30:33.436Z,9.13
2018-06-01T07:33:14.757Z,5.17
2018-06-01T07:35:55.740Z,5.30
2018-06-01T07:38:36.079Z,8.87
2018-06-01T07:41:16.386Z,5.93
2018-06-01T07:43:56.791Z,6.13
2018-06-01T07:46:37.224Z,6.77
2018-06-01T07:49:17.676Z,8.60
2018-06-01T07:51:58.220Z,9.50
2018-06-01T07:54:38.585Z,10.77
2018-06-01T07:57:19.090Z,10.47
2018-06-01T07:59:59.377Z,7.40
2018-06-01T08:02:39.739Z,7.07
2018-06-01T08:05:20.833Z,8.10
2018-06-01T08:08:01.168Z,7.43
2018-06-01T08:10:41.501Z,6.03
2018-06-01T08:13:23.593Z,6.53
2018-06-01T08:16:04.024Z,7.83
2018-06-01T08:18:45.335Z,10.10
2018-06-01T08:21:26.520Z,5.20
2018-06-01T08:24:07.465Z,6.57
2018-06-01T08:26:47.756Z,14.50
2018-06-01T08:29:28.683Z,8.77
2018-06-01T08:32:09.088Z,5.70
2018-06-01T08:34:49.558Z,7.30
2018-06-01T08:37:30.741Z,6.50
2018-06-01T08:40:11.188Z,8.27
2018-06-01T08:42:52.053Z,8.13
2018-06-01T08:45:33.325Z,7.17
2018-06-01T08:48:13.746Z,5.60
2018-06-01T08:50:54.844Z,6.03
2018-06-01T08:53:35.145Z,7.57
2018-06-01T08:56:15.576Z,8.63
2018-06-01T08:58:56.559Z,6.73
2018-06-01T09:01:36.978Z,9.83
2018-06-01T09:04:18.297Z,6.10
2018-06-01T09:06:59.510Z,8.43
2018-06-01T09:09:39.990Z,6.40
2018-06-01T09:12:20.288Z,5.43
2018-06-01T09:15:00.642Z,8.40
2018-06-01T09:17:41.655Z,6.27
2018-06-01T09:20:23.008Z,8.93
2018-06-01T09:23:03.408Z,5.77
2018-06-01T09:25:45.373Z,8.07
2018-06-01T09:28:26.468Z,8.97
2018-06-01T09:31:06.758Z,7.03
2018-06-01T09:33:48.428Z,7.30
2018-06-01T09:36:28.755Z,6.33
2018-06-01T09:39:09.381Z,6.60
2018-06-01T09:41:49.841Z,8.43
2018-06-01T09:44:30.503Z,9.47
2018-06-01T09:47:10.908Z,7.47
2018-06-01T09:49:51.834Z,6.53
2018-06-01T09:52:32.284Z,8.53
2018-06-01T09:55:12.652Z,6.80
2018-06-01T09:57:53.819Z,6.47
2018-06-01T10:00:39.836Z,7.03
2018-06-01T10:03:20.207Z,10.27
2018-06-01T10:06:00.663Z,6.10
2018-06-01T10:08:41.064Z,7.80
2018-06-01T10:11:21.799Z,8.00
2018-06-01T10:14:02.172Z,7.60
2018-06-01T10:16:42.501Z,11.20
2018-06-01T10:19:23.354Z,8.23
2018-06-01T10:22:03.732Z,12.17
2018-06-01T10:24:44.088Z,9.97
2018-06-01T10:27:24.708Z,8.93
2018-06-01T10:30:04.992Z,7.53
2018-06-01T10:32:45.404Z,8.93
2018-06-01T10:35:26.320Z,6.40
2018-06-01T10:38:06.761Z,6.47
2018-06-01T10:40:47.077Z,6.47
2018-06-01T10:43:27.372Z,9.70
2018-06-01T10:46:07.788Z,9.30
2018-06-01T10:48:48.077Z,7.53
2018-06-01T10:51:28.439Z,7.27
2018-06-01T10:54:08.638Z,8.73
2018-06-01T10:56:49.188Z,11.47
2018-06-01T10:59:29.543Z,7.17
2018-06-01T11:02:09.768Z,6.20
2018-06-01T11:04:50.755Z,8.50
2018-06-01T11:07:31.086Z,10.00
2018-06-01T11:10:12.317Z,9.90
2018-06-01T11:12:53.392Z,9.07
2018-06-01T11:15:33.869Z,8.60
2018-06-01T11:18:14.286Z,9.10
2018-06-01T11:20:56.240Z,12.80
2018-06-01T11:23:36.493Z,10.20
2018-06-01T11:26:16.937Z,7.03
2018-06-01T11:28:57.279Z,5.10
2018-06-01T11:31:37.721Z,9.87
2018-06-01T11:34:19.668Z,7.07
2018-06-01T11:37:00.375Z,5.97
2018-06-01T11:39:40.902Z,7.23
2018-06-01T11:42:22.038Z,7.03
2018-06-01T11:45:03.119Z,7.17
2018-06-01T11:47:43.647Z,8.13
2018-06-01T11:50:24.591Z,8.93
2018-06-01T11:53:04.958Z,6.73
2018-06-01T11:55:45.284Z,8.53
2018-06-01T11:58:26.534Z,6.87
2018-06-01T12:01:07.343Z,9.50
2018-06-01T12:03:47.797Z,6.53
2018-06-01T12:06:28.102Z,6.63
2018-06-01T12:09:08.412Z,7.80
2018-06-01T12:11:48.920Z,8.30
2018-06-01T12:14:29.266Z,8.67
2018-06-01T12:17:09.586Z,9.70
2018-06-01T12:19:49.912Z,9.77
2018-06-01T12:22:30.207Z,11.30
2018-06-01T12:25:10.871Z,12.73
2018-06-01T12:27:51.580Z,9.97
2018-06-01T12:30:31.888Z,10.10
2018-06-01T12:33:12.299Z,13.40
2018-06-01T12:35:53.755Z,9.07
2018-06-01T12:38:34.048Z,9.87
2018-06-01T12:41:14.428Z,10.73
2018-06-01T12:43:55.258Z,12.50
2018-06-01T12:46:35.603Z,10.23
2018-06-01T12:49:15.917Z,10.33
2018-06-01T12:51:56.264Z,11.30
2018-06-01T12:54:37.324Z,10.87
2018-06-01T12:57:17.823Z,10.27
2018-06-01T12:59:58.184Z,12.60
2018-06-01T13:02:38.611Z,14.57
2018-06-01T13:05:19.025Z,13.23
2018-06-01T13:08:00.109Z,13.17
2018-06-01T13:10:40.389Z,14.27
2018-06-01T13:13:21.711Z,9.33
2018-06-01T13:16:02.094Z,10.17
2018-06-01T13:18:42.471Z,14.60
2018-06-01T13:21:25.506Z,10.20
2018-06-01T13:24:05.815Z,9.30
2018-06-01T13:26:46.108Z,10.30
2018-06-01T13:29:26.532Z,9.17
2018-06-01T13:32:06.933Z,8.30
2018-06-01T13:34:47.386Z,9.57
2018-06-01T13:37:28.788Z,11.37
2018-06-01T13:40:09.229Z,14.17
2018-06-01T13:42:49.628Z,8.40
2018-06-01T13:45:30.897Z,9.37
2018-06-01T13:48:11.449Z,8.80
2018-06-01T13:50:52.349Z,8.93
2018-06-01T13:53:33.145Z,10.20
2018-06-01T13:56:13.472Z,11.47
2018-06-01T13:58:54.584Z,11.33
2018-06-01T14:01:34.955Z,9.90
2018-06-01T14:04:15.291Z,11.30
2018-06-01T14:06:56.128Z,12.00
2018-06-01T14:09:36.766Z,10.97
2018-06-01T14:12:17.215Z,9.00
2018-06-01T14:14:57.794Z,9.23
2018-06-01T14:17:38.333Z,10.23
2018-06-01T14:20:18.654Z,12.10
2018-06-01T14:22:59.253Z,10.30
2018-06-01T14:25:39.664Z,8.87
2018-06-01T14:28:20.691Z,8.43
2018-06-01T14:31:00.992Z,9.60
2018-06-01T14:33:41.260Z,9.20
2018-06-01T14:36:22.439Z,12.70
2018-06-01T14:39:03.312Z,11.73
2018-06-01T14:41:43.545Z,13.00
2018-06-01T14:44:25.363Z,9.70
2018-06-01T14:47:05.883Z,10.00
2018-06-01T14:49:47.047Z,10.97
2018-06-01T14:52:27.233Z,11.20
2018-06-01T14:55:07.612Z,10.60
2018-06-01T14:57:47.826Z,10.27
2018-06-01T15:00:28.263Z,11.53
2018-06-01T15:03:08.683Z,11.23
2018-06-01T15:05:49.848Z,10.23
2018-06-01T15:08:30.506Z,15.17
2018-06-01T15:11:10.827Z,9.90
2018-06-01T15:13:51.817Z,11.37
2018-06-01T15:16:32.153Z,12.63
2018-06-01T15:19:12.617Z,12.43
2018-06-01T15:21:53.514Z,17.37
2018-06-01T15:24:33.950Z,10.97
2018-06-01T15:27:14.400Z,16.53
2018-06-01T15:29:55.449Z,13.50
2018-06-01T15:32:35.941Z,10.80
2018-06-01T15:35:16.221Z,10.90
2018-06-01T15:37:56.665Z,11.83
2018-06-01T15:40:36.856Z,10.37
2018-06-01T15:43:17.334Z,10.17
2018-06-01T15:45:58.456Z,10.70
2018-06-01T15:48:38.781Z,15.57
2018-06-01T15:51:19.223Z,13.90
2018-06-01T15:54:00.388Z,9.53
2018-06-01T15:56:40.693Z,10.27
2018-06-01T15:59:22.062Z,10.40
2018-06-01T16:02:02.223Z,9.40
2018-06-01T16:04:42.935Z,10.33
2018-06-01T16:07:23.401Z,9.63
2018-06-01T16:10:03.939Z,8.67
2018-06-01T16:12:44.284Z,11.87
2018-06-01T16:15:26.019Z,9.10
2018-06-01T16:18:06.535Z,8.50
2018-06-01T16:20:46.868Z,10.03
2018-06-01T16:23:27.350Z,9.73
2018-06-01T16:26:08.628Z,9.53
2018-06-01T16:28:49.972Z,9.77
2018-06-01T16:31:30.431Z,12.20
2018-06-01T16:34:10.873Z,12.90
2018-06-01T16:36:53.414Z,9.83
2018-06-01T16:39:34.402Z,13.40
2018-06-01T16:42:31.386Z,11.60
2018-06-01T16:45:12.698Z,10.27
2018-06-01T16:47:53.721Z,9.53
2018-06-01T16:50:34.053Z,10.93
2018-06-01T16:53:14.869Z,12.40
2018-06-01T16:55:56.195Z,9.50
2018-06-01T16:58:37.284Z,9.83
2018-06-01T17:01:18.493Z,9.07
2018-06-01T17:03:58.876Z,9.43
2018-06-01T17:06:39.248Z,12.80
2018-06-01T17:09:19.670Z,13.10
2018-06-01T17:12:00.548Z,15.50
2018-06-01T17:14:41.096Z,14.73
2018-06-01T17:17:22.307Z,12.63
2018-06-01T17:20:02.672Z,12.33
2018-06-01T17:22:43.220Z,14.50
2018-06-01T17:25:24.129Z,15.10
2018-06-01T17:28:12.850Z,14.37
2018-06-01T17:31:05.381Z,12.77
2018-06-01T17:33:45.727Z,15.53
2018-06-01T17:36:26.465Z,17.13
2018-06-01T17:39:06.819Z,16.63
2018-06-01T17:41:48.314Z,17.10
2018-06-01T17:44:28.891Z,16.70
2018-06-01T17:47:09.191Z,20.03
2018-06-01T17:49:49.714Z,14.57
2018-06-01T17:52:30.888Z,16.53
2018-06-01T17:55:11.858Z,12.93
2018-06-01T17:57:54.368Z,11.20
2018-06-01T18:00:34.726Z,10.73
2018-06-01T18:03:15.204Z,10.97
2018-06-01T18:05:56.165Z,10.33
2018-06-01T18:08:36.638Z,9.30
2018-06-01T18:11:17.901Z,12.80
2018-06-01T18:13:58.133Z,11.87
2018-06-01T18:16:38.486Z,9.97
2018-06-01T18:19:18.935Z,10.93
2018-06-01T18:21:59.232Z,9.77
2018-06-01T18:24:39.558Z,8.70
2018-06-01T18:27:20.028Z,15.97
2018-06-01T18:30:05.385Z,10.07
2018-06-01T18:32:45.668Z,10.30
2018-06-01T18:35:27.045Z,10.97
2018-06-01T18:38:07.504Z,9.80
2018-06-01T18:40:47.837Z,8.63
2018-06-01T18:43:28.490Z,8.73
2018-06-01T18:46:09.198Z,11.13
2018-06-01T18:48:49.497Z,8.87
2018-06-01T18:51:30.250Z,11.60
2018-06-01T18:54:10.621Z,9.53
2018-06-01T18:56:50.963Z,8.70
2018-06-01T18:59:31.564Z,12.63
2018-06-01T19:02:11.765Z,9.13
2018-06-01T19:04:52.810Z,9.60
2018-06-01T19:07:33.524Z,12.23
2018-06-01T19:10:14.028Z,8.13
2018-06-01T19:12:54.521Z,8.80
2018-06-01T19:15:34.979Z,8.90
2018-06-01T19:18:15.293Z,10.13
2018-06-01T19:20:56.368Z,7.90
2018-06-01T19:23:39.602Z,8.87
2018-06-01T19:26:20.064Z,9.60
2018-06-01T19:29:01.384Z,10.40
2018-06-01T19:31:42.645Z,11.13
2018-06-01T19:34:24.120Z,13.87
2018-06-01T19:37:04.420Z,13.73
2018-06-01T19:39:44.775Z,11.70
2018-06-01T19:42:25.732Z,11.47
2018-06-01T19:45:06.097Z,8.47
2018-06-01T19:47:46.431Z,9.63
2018-06-01T19:50:27.266Z,8.37
2018-06-01T19:53:07.652Z,7.77
2018-06-01T19:55:48.185Z,7.37
2018-06-01T19:58:28.504Z,8.43
2018-06-01T20:01:09.099Z,8.90
2018-06-01T20:03:49.428Z,7.17
2018-06-01T20:06:30.659Z,9.17
2018-06-01T20:09:11.068Z,8.60
2018-06-01T20:11:53.004Z,7.47
2018-06-01T20:14:33.479Z,9.97
2018-06-01T20:17:14.960Z,8.70
2018-06-01T20:19:55.827Z,11.00
2018-06-01T20:22:36.168Z,9.70
2018-06-01T20:25:16.508Z,10.17
2018-06-01T20:27:57.729Z,8.90
2018-06-01T20:30:38.269Z,13.57
2018-06-01T20:33:18.649Z,8.57
2018-06-01T20:35:59.008Z,14.27
2018-06-01T20:38:39.380Z,8.50
2018-06-01T20:41:19.569Z,8.63
2018-06-01T20:44:00.813Z,12.40
2018-06-01T20:46:41.602Z,8.03
2018-06-01T20:49:23.565Z,8.33
2018-06-01T20:52:03.853Z,9.37
2018-06-01T20:54:44.147Z,8.10
2018-06-01T20:57:24.813Z,9.73
2018-06-01T21:00:05.140Z,11.87
2018-06-01T21:02:45.464Z,9.17
2018-06-01T21:05:26.136Z,9.87
2018-06-01T21:08:07.243Z,9.30
2018-06-01T21:10:47.694Z,10.97
2018-06-01T21:13:27.940Z,13.30
2018-06-01T21:16:08.287Z,10.63
2018-06-01T21:18:48.645Z,11.33
2018-06-01T21:21:29.143Z,10.87
2018-06-01T21:24:09.482Z,9.50
2018-06-01T21:26:49.935Z,12.83
2018-06-01T21:29:30.370Z,11.23
2018-06-01T21:32:25.200Z,11.03
2018-06-01T21:35:05.600Z,11.53
2018-06-01T21:37:45.867Z,12.47
2018-06-01T21:40:26.451Z,12.17
2018-06-01T21:43:07.694Z,10.93
2018-06-01T21:45:48.129Z,10.73
2018-06-01T21:48:28.432Z,12.33
2018-06-01T21:51:08.895Z,11.73
2018-06-01T21:53:49.228Z,13.77
2018-06-01T21:56:30.340Z,15.40
2018-06-01T21:59:10.676Z,15.27
2018-06-01T22:01:51.101Z,9.40
2018-06-01T22:04:31.948Z,10.47
2018-06-01T22:07:12.248Z,9.97
2018-06-01T22:09:53.239Z,10.37
2018-06-01T22:12:33.548Z,9.33
2018-06-01T22:15:14.020Z,11.00
2018-06-01T22:17:54.947Z,17.10
2018-06-01T22:20:36.354Z,12.67
2018-06-01T22:23:16.872Z,13.63
2018-06-01T22:25:57.703Z,11.93
2018-06-01T22:28:38.172Z,14.03
2018-06-01T22:31:19.520Z,13.00
2018-06-01T22:33:59.858Z,13.47
2018-06-01T22:36:40.388Z,13.20
2018-06-01T22:39:20.798Z,16.20
2018-06-01T22:42:02.780Z,18.67
2018-06-01T22:44:43.152Z,18.70
2018-06-01T22:47:24.096Z,20.20
2018-06-01T22:50:04.521Z,18.07
2018-06-01T22:52:44.894Z,17.17
2018-06-01T22:55:25.797Z,24.80
2018-06-01T22:58:06.102Z,17.80
2018-06-01T23:00:46.397Z,19.17
2018-06-01T23:03:27.209Z,20.87
2018-06-01T23:06:07.501Z,19.27
2018-06-01T23:08:47.885Z,17.73
2018-06-01T23:11:28.192Z,18.20
2018-06-01T23:14:08.568Z,16.97
2018-06-01T23:16:48.959Z,16.60
2018-06-01T23:19:29.413Z,17.23
2018-06-01T23:22:09.726Z,17.50
2018-06-01T23:24:50.431Z,16.40
2018-06-01T23:27:31.071Z,16.10
2018-06-01T23:30:11.388Z,18.87
2018-06-01T23:32:52.065Z,16.87
2018-06-01T23:35:32.392Z,15.20
2018-06-01T23:38:12.819Z,15.47
2018-06-01T23:40:53.764Z,19.07
2018-06-01T23:43:35.007Z,16.93
2018-06-01T23:46:16.625Z,15.27
2018-06-01T23:48:57.395Z,15.80
2018-06-01T23:51:37.860Z,14.17
2018-06-01T23:54:18.161Z,20.83
2018-06-01T23:56:58.660Z,14.03
2018-06-01T23:59:39.001Z,13.20
